createdAt,value
2018-09-23T00:01:51.863Z,3.70
2018-09-23T00:04:20.730Z,3.63
2018-09-23T00:06:49.665Z,3.97
2018-09-23T00:09:18.535Z,3.80
2018-09-23T00:11:47.467Z,3.80
2018-09-23T00:14:16.365Z,4.53
2018-09-23T00:16:45.468Z,3.97
2018-09-23T00:19:14.370Z,3.47
2018-09-23T00:21:43.315Z,3.43
2018-09-23T00:24:12.220Z,3.87
2018-09-23T00:26:41.163Z,4.27
2018-09-23T00:29:10.020Z,3.67
2018-09-23T00:31:38.945Z,4.13
2018-09-23T00:34:07.761Z,3.97
2018-09-23T00:36:36.686Z,4.23
2018-09-23T00:39:06.013Z,4.10
2018-09-23T00:41:34.978Z,3.83
2018-09-23T00:44:03.938Z,4.00
2018-09-23T00:46:32.843Z,4.13
2018-09-23T00:49:01.703Z,3.67
2018-09-23T00:51:30.624Z,4.13
2018-09-23T00:53:59.571Z,4.20
2018-09-23T00:56:28.499Z,3.93
2018-09-23T00:58:57.488Z,3.60
2018-09-23T01:01:26.400Z,3.67
2018-09-23T01:03:55.341Z,3.90
2018-09-23T01:06:24.236Z,3.53
2018-09-23T01:08:53.145Z,3.97
2018-09-23T01:11:22.077Z,4.00
2018-09-23T01:13:50.976Z,3.67
2018-09-23T01:16:19.966Z,4.53
2018-09-23T01:18:49.159Z,3.50
2018-09-23T01:21:18.082Z,3.80
2018-09-23T01:23:47.015Z,3.97
2018-09-23T01:26:15.965Z,3.63
2018-09-23T01:28:44.855Z,3.50
2018-09-23T01:31:13.727Z,4.47
2018-09-23T01:33:42.581Z,4.57
2018-09-23T01:36:11.473Z,4.37
2018-09-23T01:38:40.323Z,4.60
2018-09-23T01:41:09.183Z,4.33
2018-09-23T01:43:38.024Z,5.27
2018-09-23T01:46:06.944Z,5.30
2018-09-23T01:48:35.954Z,5.40
2018-09-23T01:51:04.896Z,6.30
2018-09-23T01:53:33.833Z,5.40
2018-09-23T01:56:02.830Z,6.63
2018-09-23T01:58:31.690Z,6.80
2018-09-23T02:01:00.622Z,6.23
2018-09-23T02:03:29.557Z,6.23
2018-09-23T02:05:58.546Z,6.67
2018-09-23T02:08:27.814Z,7.33
2018-09-23T02:10:56.633Z,6.73
2018-09-23T02:13:25.612Z,7.00
2018-09-23T02:15:54.457Z,6.77
2018-09-23T02:18:23.290Z,7.87
2018-09-23T02:20:52.170Z,7.90
2018-09-23T02:23:21.040Z,7.20
2018-09-23T02:25:49.903Z,6.77
2018-09-23T02:28:18.783Z,7.50
2018-09-23T02:30:47.776Z,7.63
2018-09-23T02:33:16.670Z,7.13
2018-09-23T02:35:45.535Z,7.73
2018-09-23T02:38:14.429Z,7.47
2018-09-23T02:40:43.287Z,8.43
2018-09-23T02:43:12.162Z,7.33
2018-09-23T02:45:41.038Z,6.57
2018-09-23T02:48:09.878Z,7.97
2018-09-23T02:50:38.747Z,6.93
2018-09-23T02:53:07.597Z,7.30
2018-09-23T02:55:36.554Z,7.10
2018-09-23T02:58:05.414Z,7.70
2018-09-23T03:00:34.333Z,7.47
2018-09-23T03:03:03.200Z,7.57
2018-09-23T03:05:32.107Z,7.43
2018-09-23T03:08:00.951Z,7.03
2018-09-23T03:10:29.793Z,7.33
2018-09-23T03:12:58.727Z,6.13
2018-09-23T03:15:27.634Z,7.07
2018-09-23T03:17:56.575Z,6.93
2018-09-23T03:20:25.408Z,7.90
2018-09-23T03:22:54.346Z,6.63
2018-09-23T03:25:23.194Z,6.93
2018-09-23T03:27:52.062Z,6.43
2018-09-23T03:30:21.032Z,7.60
2018-09-23T03:32:49.953Z,6.87
2018-09-23T03:35:18.852Z,7.10
2018-09-23T03:37:47.732Z,7.00
2018-09-23T03:40:16.597Z,7.27
2018-09-23T03:42:45.549Z,7.90
2018-09-23T03:45:14.533Z,7.13
2018-09-23T03:47:43.410Z,7.07
2018-09-23T03:50:12.346Z,7.30
2018-09-23T03:52:41.184Z,7.50
2018-09-23T03:55:10.067Z,7.07
2018-09-23T03:57:38.916Z,6.87
2018-09-23T04:00:07.879Z,7.30
2018-09-23T04:02:36.772Z,7.87
2018-09-23T04:05:05.895Z,7.77
2018-09-23T04:07:34.846Z,7.70
2018-09-23T04:10:03.793Z,7.93
2018-09-23T04:12:32.608Z,7.23
2018-09-23T04:15:01.485Z,7.90
2018-09-23T04:17:30.337Z,7.60
2018-09-23T04:19:59.252Z,8.13
2018-09-23T04:22:28.141Z,8.90
2018-09-23T04:24:57.024Z,8.50
2018-09-23T04:27:25.877Z,7.83
2018-09-23T04:29:54.730Z,7.83
2018-09-23T04:32:23.609Z,8.93
2018-09-23T04:34:52.500Z,8.17
2018-09-23T04:37:21.401Z,8.17
2018-09-23T04:39:50.306Z,9.43
2018-09-23T04:42:19.153Z,8.07
2018-09-23T04:44:48.035Z,8.43
2018-09-23T04:47:16.992Z,7.70
2018-09-23T04:49:45.890Z,9.00
2018-09-23T04:52:14.773Z,8.13
2018-09-23T04:54:43.590Z,8.63
2018-09-23T04:57:12.481Z,9.03
2018-09-23T04:59:41.330Z,8.57
2018-09-23T05:02:10.187Z,8.03
2018-09-23T05:04:39.056Z,9.13
2018-09-23T05:07:07.974Z,8.63
2018-09-23T05:09:36.880Z,8.60
2018-09-23T05:12:05.742Z,8.80
2018-09-23T05:14:34.952Z,9.03
2018-09-23T05:17:04.013Z,9.50
2018-09-23T05:19:32.914Z,9.40
2018-09-23T05:22:01.821Z,8.90
2018-09-23T05:24:30.690Z,9.80
2018-09-23T05:27:00.042Z,7.90
2018-09-23T05:29:28.951Z,8.73
2018-09-23T05:31:57.792Z,9.23
2018-09-23T05:34:26.663Z,9.10
2018-09-23T05:36:55.555Z,9.53
2018-09-23T05:39:24.443Z,9.60
2018-09-23T05:41:53.283Z,9.17
2018-09-23T05:44:22.148Z,9.10
2018-09-23T05:46:51.017Z,8.77
2018-09-23T05:49:19.926Z,9.43
2018-09-23T05:51:48.788Z,9.20
2018-09-23T05:54:17.711Z,9.30
2018-09-23T05:56:47.672Z,9.90
2018-09-23T05:59:16.946Z,8.87
2018-09-23T06:01:45.826Z,10.10
2018-09-23T06:04:14.831Z,10.03
2018-09-23T06:06:43.671Z,9.93
2018-09-23T06:09:12.993Z,9.60
2018-09-23T06:11:42.271Z,8.93
2018-09-23T06:14:11.219Z,9.63
2018-09-23T06:16:40.394Z,9.33
2018-09-23T06:19:09.372Z,8.60
2018-09-23T06:21:38.466Z,9.17
2018-09-23T06:24:07.459Z,8.63
2018-09-23T06:26:36.430Z,8.53
2018-09-23T06:29:05.539Z,8.50
2018-09-23T06:31:34.541Z,9.00
2018-09-23T06:34:03.429Z,8.43
2018-09-23T06:36:32.469Z,8.43
2018-09-23T06:39:06.818Z,8.17
2018-09-23T06:41:35.871Z,8.33
2018-09-23T06:44:05.558Z,7.50
2018-09-23T06:46:34.589Z,7.20
2018-09-23T06:49:03.513Z,7.47
2018-09-23T06:51:32.351Z,7.03
2018-09-23T06:54:01.225Z,6.20
2018-09-23T06:56:30.132Z,6.57
2018-09-23T06:58:58.988Z,5.23
2018-09-23T07:01:27.907Z,5.60
2018-09-23T07:03:56.822Z,6.93
2018-09-23T07:06:25.677Z,5.37
2018-09-23T07:08:54.525Z,4.67
2018-09-23T07:11:23.404Z,4.97
2018-09-23T07:13:52.262Z,4.97
2018-09-23T07:16:21.100Z,4.23
2018-09-23T07:18:49.944Z,4.07
2018-09-23T07:21:18.872Z,4.77
2018-09-23T07:23:47.763Z,3.80
2018-09-23T07:26:16.690Z,3.83
2018-09-23T07:28:45.585Z,3.73
2018-09-23T07:31:14.541Z,4.10
2018-09-23T07:33:43.526Z,3.37
2018-09-23T07:36:12.344Z,4.10
2018-09-23T07:38:41.246Z,4.00
2018-09-23T07:41:10.090Z,4.33
2018-09-23T07:43:39.042Z,3.50
2018-09-23T07:46:07.953Z,3.67
2018-09-23T07:48:36.876Z,3.77
2018-09-23T07:51:05.873Z,3.40
2018-09-23T07:53:34.735Z,3.43
2018-09-23T07:56:03.694Z,3.23
2018-09-23T07:58:32.559Z,3.30
2018-09-23T08:01:01.467Z,3.07
2018-09-23T08:03:30.563Z,3.50
2018-09-23T08:05:59.779Z,3.17
2018-09-23T08:08:28.619Z,3.40
2018-09-23T08:10:57.585Z,3.67
2018-09-23T08:13:27.201Z,3.30
2018-09-23T08:15:56.611Z,3.03
2018-09-23T08:18:25.496Z,3.07
2018-09-23T08:20:54.488Z,2.87
2018-09-23T08:23:23.389Z,2.50
2018-09-23T08:25:52.282Z,2.70
2018-09-23T08:28:21.158Z,2.40
2018-09-23T08:30:50.015Z,2.97
2018-09-23T08:33:18.935Z,2.93
2018-09-23T08:35:47.880Z,2.13
2018-09-23T08:38:16.826Z,2.20
2018-09-23T08:40:45.749Z,1.60
2018-09-23T08:43:14.746Z,2.20
2018-09-23T08:45:43.669Z,1.83
2018-09-23T08:48:12.695Z,1.40
2018-09-23T08:50:41.555Z,2.67
2018-09-23T08:53:10.543Z,1.80
2018-09-23T08:55:39.447Z,2.00
2018-09-23T08:58:08.484Z,1.87
2018-09-23T09:00:37.391Z,1.50
2018-09-23T09:03:06.362Z,1.20
2018-09-23T09:05:35.440Z,1.30
2018-09-23T09:08:04.446Z,1.50
2018-09-23T09:10:33.340Z,1.80
2018-09-23T09:13:02.230Z,2.10
2018-09-23T09:15:31.166Z,1.57
2018-09-23T09:20:37.307Z,1.47
2018-09-23T09:23:06.197Z,2.37
2018-09-23T09:25:36.235Z,1.33
2018-09-23T09:28:05.178Z,1.20
2018-09-23T09:30:34.140Z,0.93
2018-09-23T09:33:03.339Z,1.20
2018-09-23T09:35:32.338Z,1.10
2018-09-23T09:38:01.295Z,1.20
2018-09-23T09:40:30.223Z,1.20
2018-09-23T09:42:59.211Z,1.03
2018-09-23T09:45:28.145Z,1.10
2018-09-23T09:47:57.136Z,1.07
2018-09-23T09:50:26.145Z,1.20
2018-09-23T09:52:55.131Z,0.93
2018-09-23T09:55:24.020Z,1.00
2018-09-23T09:57:52.944Z,1.10
2018-09-23T10:00:27.121Z,1.17
2018-09-23T10:02:55.991Z,1.20
2018-09-23T10:05:24.876Z,1.63
2018-09-23T10:07:53.769Z,1.00
2018-09-23T10:10:22.980Z,1.30
2018-09-23T10:12:51.880Z,1.77
2018-09-23T10:15:20.739Z,1.63
2018-09-23T10:17:49.662Z,1.27
2018-09-23T10:20:18.529Z,1.60
2018-09-23T10:22:48.431Z,1.60
2018-09-23T10:25:17.331Z,1.73
2018-09-23T10:27:46.306Z,1.30
2018-09-23T10:30:15.177Z,1.23
2018-09-23T10:32:44.036Z,1.30
2018-09-23T10:35:12.997Z,1.43
2018-09-23T10:37:41.858Z,1.20
2018-09-23T10:40:10.778Z,1.27
2018-09-23T10:42:39.623Z,1.50
2018-09-23T10:45:08.596Z,1.50
2018-09-23T10:47:37.560Z,2.37
2018-09-23T10:50:06.583Z,1.50
2018-09-23T10:52:35.545Z,1.50
2018-09-23T10:55:04.537Z,1.40
2018-09-23T10:57:33.499Z,1.73
2018-09-23T11:00:02.452Z,1.50
2018-09-23T11:02:31.364Z,2.47
2018-09-23T11:05:00.193Z,2.30
2018-09-23T11:07:29.114Z,1.77
2018-09-23T11:09:58.001Z,2.13
2018-09-23T11:12:26.879Z,2.40
2018-09-23T11:14:55.801Z,2.30
2018-09-23T11:17:24.724Z,2.00
2018-09-23T11:19:54.356Z,2.83
2018-09-23T11:22:23.301Z,2.87
2018-09-23T11:24:52.227Z,2.97
2018-09-23T11:27:21.113Z,2.57
2018-09-23T11:29:49.989Z,3.20
2018-09-23T11:32:19.223Z,3.53
2018-09-23T11:34:48.131Z,3.30
2018-09-23T11:37:17.161Z,3.50
2018-09-23T11:39:46.030Z,2.90
2018-09-23T11:42:14.906Z,3.70
2018-09-23T11:44:43.814Z,3.13
2018-09-23T11:47:12.682Z,3.47
2018-09-23T11:49:41.602Z,3.73
2018-09-23T11:52:10.519Z,3.23
2018-09-23T11:54:39.460Z,3.30
2018-09-23T11:57:08.298Z,3.20
2018-09-23T11:59:37.161Z,3.67
2018-09-23T12:02:06.900Z,4.03
2018-09-23T12:04:36.795Z,3.63
2018-09-23T12:07:05.909Z,4.63
2018-09-23T12:09:34.826Z,3.90
2018-09-23T12:12:03.843Z,4.83
2018-09-23T12:14:32.740Z,3.50
2018-09-23T12:17:01.777Z,4.77
2018-09-23T12:19:30.725Z,4.37
2018-09-23T12:21:59.640Z,4.77
2018-09-23T12:24:28.828Z,5.37
2018-09-23T12:26:58.036Z,5.27
2018-09-23T12:29:26.975Z,5.10
2018-09-23T12:31:55.975Z,5.17
2018-09-23T12:34:24.906Z,5.67
2018-09-23T12:36:54.188Z,6.23
2018-09-23T12:39:23.225Z,4.87
2018-09-23T12:41:52.218Z,5.20
2018-09-23T12:44:21.208Z,5.73
2018-09-23T12:46:50.318Z,5.10
2018-09-23T12:49:19.329Z,6.83
2018-09-23T12:51:48.364Z,6.77
2018-09-23T12:54:17.386Z,6.13
2018-09-23T12:56:46.531Z,6.30
2018-09-23T12:59:15.660Z,6.60
2018-09-23T13:01:45.319Z,6.50
2018-09-23T13:04:14.402Z,7.03
2018-09-23T13:06:43.660Z,7.47
2018-09-23T13:09:12.822Z,6.67
2018-09-23T13:11:41.728Z,6.57
2018-09-23T13:14:10.745Z,6.97
2018-09-23T13:16:39.706Z,6.40
2018-09-23T13:19:08.670Z,7.13
2018-09-23T13:21:37.636Z,6.80
2018-09-23T13:24:06.837Z,7.20
2018-09-23T13:26:35.898Z,7.37
2018-09-23T13:29:05.410Z,6.70
2018-09-23T13:31:34.590Z,8.00
2018-09-23T13:34:03.534Z,7.20
2018-09-23T13:36:32.565Z,7.90
2018-09-23T13:39:01.680Z,8.40
2018-09-23T13:41:30.608Z,7.30
2018-09-23T13:43:59.594Z,8.57
2018-09-23T13:46:28.685Z,8.13
2018-09-23T13:48:57.632Z,8.33
2018-09-23T13:51:26.601Z,7.80
2018-09-23T13:53:55.569Z,8.87
2018-09-23T13:56:24.509Z,7.83
2018-09-23T13:58:53.505Z,7.43
2018-09-23T14:01:22.493Z,8.20
2018-09-23T14:03:51.389Z,8.50
2018-09-23T14:06:20.375Z,8.43
2018-09-23T14:08:49.264Z,8.13
2018-09-23T14:11:18.316Z,8.17
2018-09-23T14:13:47.259Z,8.07
2018-09-23T14:16:16.198Z,8.47
2018-09-23T14:18:45.179Z,7.43
2018-09-23T14:21:14.027Z,7.53
2018-09-23T14:23:42.929Z,7.83
2018-09-23T14:26:12.025Z,7.03
2018-09-23T14:28:41.640Z,7.10
2018-09-23T14:31:10.716Z,6.57
2018-09-23T14:33:39.609Z,7.00
2018-09-23T14:36:08.557Z,7.67
2018-09-23T14:38:37.479Z,7.47
2018-09-23T14:41:06.531Z,7.03
2018-09-23T14:43:35.476Z,7.93
2018-09-23T14:46:04.387Z,7.40
2018-09-23T14:48:33.662Z,7.47
2018-09-23T14:51:02.559Z,7.63
2018-09-23T14:53:31.626Z,6.37
2018-09-23T14:56:00.554Z,7.23
2018-09-23T14:58:29.601Z,7.67
2018-09-23T15:00:58.588Z,7.53
2018-09-23T15:03:27.576Z,7.70
2018-09-23T15:05:56.439Z,7.83
2018-09-23T15:08:25.428Z,8.27
2018-09-23T15:10:54.374Z,8.97
2018-09-23T15:13:23.334Z,8.73
2018-09-23T15:15:52.466Z,8.93
2018-09-23T15:18:21.936Z,8.20
2018-09-23T15:20:51.967Z,7.67
2018-09-23T15:23:20.926Z,7.23
2018-09-23T15:25:49.950Z,7.90
2018-09-23T15:28:18.979Z,7.70
2018-09-23T15:30:47.896Z,8.00
2018-09-23T15:33:16.874Z,6.77
2018-09-23T15:35:45.779Z,6.90
2018-09-23T15:38:14.744Z,7.73
2018-09-23T15:40:43.681Z,6.83
2018-09-23T15:43:12.582Z,5.70
2018-09-23T15:45:41.490Z,5.63
2018-09-23T15:48:10.465Z,5.73
2018-09-23T15:50:39.669Z,4.07
2018-09-23T15:53:09.700Z,3.47
2018-09-23T15:55:38.644Z,2.90
2018-09-23T15:58:07.685Z,3.23
2018-09-23T16:00:36.563Z,3.73
2018-09-23T16:03:05.533Z,3.23
2018-09-23T16:05:34.479Z,3.80
2018-09-23T16:08:04.217Z,4.03
2018-09-23T16:10:33.094Z,4.07
2018-09-23T16:13:02.606Z,5.03
2018-09-23T16:15:31.489Z,4.20
2018-09-23T16:18:00.460Z,4.63
2018-09-23T16:20:29.484Z,4.30
2018-09-23T16:22:58.732Z,4.60
2018-09-23T16:25:27.644Z,4.37
2018-09-23T16:27:56.632Z,3.97
2018-09-23T16:30:25.560Z,4.40
2018-09-23T16:32:54.482Z,4.77
2018-09-23T16:35:25.972Z,4.03
2018-09-23T16:37:55.305Z,4.37
2018-09-23T16:40:24.803Z,5.57
2018-09-23T16:42:55.164Z,6.03
2018-09-23T16:45:24.134Z,5.90
2018-09-23T16:47:53.058Z,6.17
2018-09-23T16:50:22.009Z,6.23
2018-09-23T16:52:50.936Z,7.00
2018-09-23T16:55:19.875Z,7.00
2018-09-23T16:57:48.844Z,7.50
2018-09-23T17:00:17.751Z,5.50
2018-09-23T17:02:46.644Z,5.07
2018-09-23T17:05:15.492Z,4.20
2018-09-23T17:07:44.432Z,4.33
2018-09-23T17:10:13.331Z,3.30
2018-09-23T17:12:42.200Z,3.13
2018-09-23T17:15:11.109Z,3.30
2018-09-23T17:17:40.001Z,4.10
2018-09-23T17:20:09.064Z,3.63
2018-09-23T17:22:38.283Z,3.50
2018-09-23T17:25:07.221Z,3.67
2018-09-23T17:27:36.395Z,3.60
2018-09-23T17:30:05.556Z,3.70
2018-09-23T17:32:34.451Z,3.27
2018-09-23T17:35:03.492Z,3.93
2018-09-23T17:37:32.700Z,3.77
2018-09-23T17:40:03.710Z,4.07
2018-09-23T17:42:32.659Z,3.27
2018-09-23T17:45:02.778Z,3.10
2018-09-23T17:47:32.912Z,2.60
2018-09-23T17:50:01.783Z,2.50
2018-09-23T17:52:30.749Z,4.33
2018-09-23T17:54:59.646Z,3.10
2018-09-23T17:57:28.999Z,4.33
2018-09-23T17:59:58.109Z,2.83
2018-09-23T18:02:27.600Z,3.00
2018-09-23T18:04:57.251Z,2.33
2018-09-23T18:07:26.300Z,3.00
2018-09-23T18:09:55.720Z,4.73
2018-09-23T18:12:25.209Z,3.17
2018-09-23T18:14:54.169Z,4.20
2018-09-23T18:17:23.903Z,4.50
2018-09-23T18:19:52.835Z,5.50
2018-09-23T18:22:22.027Z,5.73
2018-09-23T18:24:55.387Z,6.00
2018-09-23T18:27:26.449Z,5.23
2018-09-23T18:29:55.460Z,5.70
2018-09-23T18:32:24.620Z,4.77
2018-09-23T18:34:54.901Z,5.27
2018-09-23T18:37:25.074Z,5.00
2018-09-23T18:39:55.552Z,4.30
2018-09-23T18:42:25.786Z,4.40
2018-09-23T18:44:54.876Z,2.57
2018-09-23T18:47:23.808Z,2.60
2018-09-23T18:49:52.877Z,2.23
2018-09-23T18:52:22.616Z,2.43
2018-09-23T18:54:57.433Z,2.17
2018-09-23T18:57:29.347Z,2.17
2018-09-23T18:59:58.406Z,2.00
2018-09-23T19:02:27.424Z,1.80
2018-09-23T19:04:57.036Z,2.33
2018-09-23T19:07:26.517Z,2.20
2018-09-23T19:09:55.540Z,2.63
2018-09-23T19:12:24.394Z,3.13
2018-09-23T19:14:53.479Z,3.00
2018-09-23T19:17:22.483Z,3.00
2018-09-23T19:19:56.892Z,2.83
2018-09-23T19:22:31.005Z,3.40
2018-09-23T19:24:59.993Z,3.30
2018-09-23T19:27:28.969Z,3.90
2018-09-23T19:29:58.460Z,3.50
2018-09-23T19:32:27.434Z,3.93
2018-09-23T19:34:56.355Z,3.37
2018-09-23T19:37:25.259Z,3.77
2018-09-23T19:39:54.943Z,4.00
2018-09-23T19:42:23.868Z,4.17
2018-09-23T19:44:53.410Z,3.27
2018-09-23T19:47:22.539Z,4.17
2018-09-23T19:49:52.779Z,4.40
2018-09-23T19:52:21.685Z,4.20
2018-09-23T19:54:50.561Z,4.27
2018-09-23T19:57:19.691Z,3.30
2018-09-23T19:59:49.594Z,4.07
2018-09-23T20:02:18.506Z,4.10
2018-09-23T20:04:47.503Z,4.00
2018-09-23T20:07:16.416Z,4.17
2018-09-23T20:09:45.443Z,4.33
2018-09-23T20:12:14.407Z,3.60
2018-09-23T20:14:43.364Z,3.90
2018-09-23T20:17:12.352Z,4.10
2018-09-23T20:19:41.283Z,3.73
2018-09-23T20:22:11.106Z,3.70
2018-09-23T20:24:40.030Z,4.13
2018-09-23T20:27:08.981Z,3.50
2018-09-23T20:29:37.898Z,3.80
2018-09-23T20:32:06.937Z,4.27
2018-09-23T20:34:36.212Z,4.80
2018-09-23T20:37:05.737Z,4.03
2018-09-23T20:39:34.762Z,3.57
2018-09-23T20:42:03.683Z,4.17
2018-09-23T20:44:32.658Z,4.07
2018-09-23T20:47:01.581Z,4.20
2018-09-23T20:49:30.665Z,3.63
2018-09-23T20:51:59.587Z,4.00
2018-09-23T20:54:28.530Z,3.90
2018-09-23T20:56:57.391Z,3.73
2018-09-23T20:59:26.309Z,3.33
2018-09-23T21:01:55.315Z,3.80
2018-09-23T21:04:24.267Z,3.50
2018-09-23T21:06:53.194Z,4.10
2018-09-23T21:09:22.182Z,3.80
2018-09-23T21:11:51.055Z,3.70
2018-09-23T21:14:19.919Z,3.83
2018-09-23T21:16:48.813Z,3.83
2018-09-23T21:19:17.732Z,4.03
2018-09-23T21:21:46.634Z,3.30
2018-09-23T21:24:15.524Z,3.50
2018-09-23T21:26:44.464Z,3.70
2018-09-23T21:29:13.348Z,3.30
2018-09-23T21:31:42.265Z,3.83
2018-09-23T21:34:11.166Z,4.33
2018-09-23T21:36:40.054Z,4.50
2018-09-23T21:39:10.275Z,3.53
2018-09-23T21:41:39.362Z,3.60
2018-09-23T21:44:08.330Z,4.07
2018-09-23T21:46:37.276Z,4.17
2018-09-23T21:49:06.121Z,4.17
2018-09-23T21:51:35.069Z,4.77
2018-09-23T21:54:04.015Z,4.30
2018-09-23T21:56:32.906Z,4.37
2018-09-23T21:59:01.902Z,4.20
2018-09-23T22:01:30.779Z,4.00
2018-09-23T22:03:59.761Z,3.57
2018-09-23T22:06:28.662Z,3.87
2018-09-23T22:08:57.547Z,3.33
2018-09-23T22:11:26.403Z,3.80
2018-09-23T22:13:55.327Z,4.90
2018-09-23T22:16:24.241Z,3.83
2018-09-23T22:18:53.151Z,3.53
2018-09-23T22:21:22.042Z,3.03
2018-09-23T22:23:50.952Z,3.77
2018-09-23T22:26:19.953Z,3.97
2018-09-23T22:28:48.822Z,3.53
2018-09-23T22:31:17.715Z,3.07
2018-09-23T22:33:46.575Z,3.03
2018-09-23T22:36:15.510Z,2.70
2018-09-23T22:38:44.435Z,2.60
2018-09-23T22:41:13.271Z,3.07
2018-09-23T22:43:42.135Z,2.47
2018-09-23T22:46:12.273Z,2.70
2018-09-23T22:48:41.162Z,2.73
2018-09-23T22:51:10.124Z,2.33
2018-09-23T22:53:39.059Z,2.40
2018-09-23T22:56:08.121Z,2.83
2018-09-23T22:58:37.040Z,2.97
2018-09-23T23:01:05.944Z,2.70
2018-09-23T23:03:34.866Z,4.00
2018-09-23T23:06:03.889Z,3.67
2018-09-23T23:08:32.756Z,4.40
2018-09-23T23:11:01.776Z,5.00
2018-09-23T23:13:30.684Z,5.37
2018-09-23T23:15:59.677Z,5.03
2018-09-23T23:18:28.652Z,5.23
2018-09-23T23:20:57.640Z,5.80
2018-09-23T23:23:26.539Z,6.27
2018-09-23T23:25:55.575Z,6.13
2018-09-23T23:28:24.491Z,7.00
2018-09-23T23:30:53.454Z,7.57
2018-09-23T23:33:22.507Z,7.13
2018-09-23T23:35:51.512Z,8.00
2018-09-23T23:38:20.485Z,7.43
2018-09-23T23:40:49.446Z,7.63
2018-09-23T23:43:18.329Z,7.57
2018-09-23T23:45:47.159Z,8.07
2018-09-23T23:48:16.121Z,8.20
2018-09-23T23:50:45.049Z,8.10
2018-09-23T23:53:14.267Z,8.30
2018-09-23T23:55:43.285Z,7.50
2018-09-23T23:58:12.206Z,8.27
